Etusivu
METAR-TAF:

METAR-TAF

Lentoasemat :

Gabès, Tunisia

Leveyspiiri: 33-53N, Pituuspiiri: 010-06E, korkeus merenpinnasta: 4 m

Tämänhetkinen sää

Tämä raportti tehtiin 12 minuuttia sitten, kello 20.00 UTC
Tuuli 8 kn idästä
Lämpötila 13°C
Kosteus 82%
Ilmanpaine 1023 hPa
Näkyvyys: 7000 m
Muutamia pilviä 3000 ft:n korkeudessa

METAR: DTTG 062000Z 08008KT 7000 FEW030 13/10 Q1023 NOSIG

Aika: 21:12 (20:12 UTC)

Sääennuste

Tämä raportti tehtiin 2 tuntia ja 12 minuuttia sitten, kello 18.00 UTC
Ennuste voimassa 06. päivästä klo 19 UTC - 07. päivään klo 04 UTC
Tuuli 7 kn idästä/koillisesta
Näkyvyys: 7000 m
Muutamia pilviä 3000 ft:n korkeudessa

TAF: DTTG 061800Z 0619/0704 07007KT 7000 FEW030

Säähavainnot ja -ennusteet yli 4000 lentoasemalta (METAR- ja TAF-raportit).

Käytössä olevat sääasemat on merkitty karttaan keltaisilla ja punaisilla pisteillä.

Aseta hiiri pisteen päälle nähdäksesi sääaseman nimen.

Klikkaa sitten nähdäksesi säähavainnot ja -ennusteet.

Kartan vaihtaminen: klikkaa mustalla rastilla varustettuja vihreitä pisteitä, niin voit zoomata sisään; viivalla varustettua vihreää pistettä, niin voit zoomata ulos tai vihreitä nuolia, niin pääset viereisille kartoille.


METAR-TAF: